Time;durP1;ratioP1;P1;durP2;ratioP2;P2;SDS_P1;SDS_P2;PMS_P1;PMS_P2;Temp;Humidity;BMP_temperature;BMP_pressure;BME280_temperature;BME280_humidity;BME280_pressure;Samples;Min_cycle;Max_cycle;Signal;HPM_P1;HPM_P2
2023/01/17 00:02:17;;;;;;;1.30;0.68;;;;;;;11.29;77.72;100275.84;5003941;28;20049;-78
2023/01/17 00:10:20;;;;;;;0.60;0.40;;;;;;;11.13;70.01;100287.63;5004947;28;20103;-78
2023/01/17 00:12:49;;;;;;;2.47;0.43;;;;;;;11.11;71.18;100289.34;5004669;28;20055;-78
2023/01/17 00:15:18;;;;;;;0.73;0.50;;;;;;;11.11;71.27;100294.50;5006886;28;20084;-75
2023/01/17 00:17:47;;;;;;;0.70;0.40;;;;;;;11.08;72.02;100292.72;5003704;28;20050;-79
2023/01/17 00:26:05;;;;;;;1.15;0.77;;;;;;;10.97;74.12;100294.22;5005996;28;20107;-77
2023/01/17 01:35:50;;;;;;;3.75;1.50;;;;;;;10.29;86.66;100378.94;5005734;28;20042;-81
2023/01/17 01:38:19;;;;;;;3.65;2.15;;;;;;;10.24;85.97;100377.06;5007249;28;20713;-78
2023/01/17 01:40:51;;;;;;;5.20;2.17;;;;;;;10.21;85.43;100387.31;5005588;28;20761;-80
2023/01/17 01:43:21;;;;;;;2.63;1.20;;;;;;;10.20;85.07;100384.72;5004327;28;20065;-80
2023/01/17 01:45:55;;;;;;;6.15;1.40;;;;;;;10.17;84.27;100388.09;5007909;28;20749;-78
2023/01/17 01:48:39;;;;;;;3.60;1.23;;;;;;;10.14;84.20;100389.72;5003859;28;20057;-78
2023/01/17 01:51:12;;;;;;;1.05;0.75;;;;;;;10.06;84.62;100386.94;5006331;28;20060;-79
2023/01/17 01:53:46;;;;;;;1.67;1.00;;;;;;;10.04;85.11;100396.38;5004178;28;20087;-79
2023/01/17 01:56:19;;;;;;;1.30;0.98;;;;;;;10.01;84.25;100394.59;5008811;28;20049;-77
2023/01/17 01:58:48;;;;;;;;;;;;;;;9.97;84.58;100402.22;5003310;28;20046;-82
2023/01/17 02:01:16;;;;;;;0.60;0.45;;;;;;;9.93;84.57;100401.25;5006852;28;19925;-83
2023/01/17 02:03:46;;;;;;;2.65;0.60;;;;;;;9.91;85.18;100402.91;5010389;28;20492;-82
2023/01/17 02:06:31;;;;;;;2.78;1.40;;;;;;;9.88;86.40;100405.44;5010764;28;20507;-79
2023/01/17 02:09:04;;;;;;;1.58;0.65;;;;;;;9.82;86.92;100403.53;5011459;28;20068;-82
2023/01/17 02:11:35;;;;;;;1.17;0.60;;;;;;;9.79;87.08;100405.19;5006413;28;20045;-81
2023/01/17 02:14:04;;;;;;;1.10;0.70;;;;;;;9.77;87.10;100410.31;5005481;28;20042;-83
2023/01/17 02:16:45;;;;;;;1.23;0.70;;;;;;;9.76;88.02;100408.56;5009817;28;20046;-85
2023/01/17 02:19:37;;;;;;;2.47;0.90;;;;;;;9.75;87.71;100406.81;5017152;28;20045;-81
2023/01/17 02:22:24;;;;;;;1.77;1.05;;;;;;;9.72;88.55;100416.19;5015067;28;20050;-81
2023/01/17 02:25:11;;;;;;;1.45;0.73;;;;;;;9.68;88.51;100415.22;5010417;28;20052;-82
2023/01/17 02:27:59;;;;;;;1.73;0.70;;;;;;;9.64;89.49;100423.72;5008888;28;20062;-83
2023/01/17 02:30:43;;;;;;;1.48;0.80;;;;;;;9.63;90.00;100432.31;5001216;28;20064;-79
2023/01/17 02:33:22;;;;;;;2.85;0.90;;;;;;;9.63;90.03;100427.13;5008087;28;20101;-77
2023/01/17 02:35:59;;;;;;;2.58;0.90;;;;;;;9.63;90.47;100432.31;5005048;28;20049;-77
2023/01/17 02:38:40;;;;;;;4.13;0.70;;;;;;;9.59;90.23;100430.47;5008074;28;20096;-77
2023/01/17 02:41:15;;;;;;;2.15;1.08;;;;;;;9.56;92.23;100426.09;5006906;28;20058;-77
2023/01/17 02:43:44;;;;;;;3.72;1.00;;;;;;;9.51;92.79;100429.38;5010504;28;20646;-78
2023/01/17 02:46:14;;;;;;;1.88;0.52;;;;;;;9.49;94.99;100428.47;5008783;28;20692;-76
2023/01/17 02:48:44;;;;;;;1.10;0.60;;;;;;;9.46;95.26;100446.44;5007059;28;20412;-78
2023/01/17 02:51:37;;;;;;;1.10;0.70;;;;;;;9.39;95.78;100432.47;5006921;28;20049;-76
2023/01/17 02:54:21;;;;;;;0.63;0.50;;;;;;;9.36;96.07;100437.56;5001937;28;20050;-78
2023/01/17 02:57:02;;;;;;;3.53;0.93;;;;;;;9.36;95.99;100443.59;5007536;28;20050;-77
2023/01/17 02:59:41;;;;;;;1.15;0.63;;;;;;;9.33;97.19;100456.41;5008797;28;20046;-78
2023/01/17 03:02:29;;;;;;;2.47;0.90;;;;;;;9.30;96.86;100458.03;5007441;28;20049;-78
2023/01/17 03:05:02;;;;;;;1.52;0.60;;;;;;;9.29;97.05;100457.16;5008369;28;20046;-78
2023/01/17 03:07:32;;;;;;;2.67;1.23;;;;;;;9.26;96.64;100458.78;5006891;28;20070;-78
2023/01/17 03:10:04;;;;;;;2.17;0.85;;;;;;;9.19;97.68;100470.63;5009375;28;20108;-75
2023/01/17 03:12:36;;;;;;;1.45;0.65;;;;;;;9.13;99.71;100465.28;5005419;28;20062;-75
2023/01/17 03:15:09;;;;;;;3.05;0.77;;;;;;;9.07;100.00;100471.13;5008376;28;20050;-78
2023/01/17 03:17:41;;;;;;;1.27;0.73;;;;;;;9.01;100.00;100470.94;5005700;28;20046;-78
2023/01/17 03:20:11;;;;;;;1.75;0.70;;;;;;;8.90;100.00;100456.81;5008864;28;20150;-79
2023/01/17 03:22:40;;;;;;;4.32;1.00;;;;;;;8.90;100.00;100473.16;5010751;28;20089;-77
2023/01/17 03:25:09;;;;;;;1.65;1.05;;;;;;;8.87;100.00;100477.38;5004664;28;20065;-78
2023/01/17 03:27:37;;;;;;;2.80;1.17;;;;;;;8.85;100.00;100485.06;5004679;28;20546;-78
2023/01/17 03:30:07;;;;;;;3.70;1.33;;;;;;;8.84;100.00;100491.03;5007741;28;20581;-78
2023/01/17 03:32:35;;;;;;;3.38;1.33;;;;;;;8.83;100.00;100489.28;5006941;28;20724;-78
2023/01/17 03:35:08;;;;;;;2.38;1.10;;;;;;;8.80;100.00;100491.78;5005090;28;20103;-78
2023/01/17 03:37:37;;;;;;;2.30;1.10;;;;;;;8.77;100.00;100489.06;5006685;28;20497;-78
2023/01/17 03:40:06;;;;;;;3.30;1.10;;;;;;;8.76;100.00;100489.91;5002281;28;20057;-78
2023/01/17 03:42:35;;;;;;;3.20;1.15;;;;;;;8.75;100.00;100485.56;5006946;28;20054;-79
2023/01/17 03:45:03;;;;;;;2.83;0.55;;;;;;;8.75;100.00;100493.31;5008408;28;20046;-79
2023/01/17 03:47:32;;;;;;;5.80;0.98;;;;;;;8.71;100.00;100488.91;5007891;28;20046;-78
2023/01/17 03:50:00;;;;;;;1.30;0.65;;;;;;;8.68;100.00;100491.34;5005017;28;20049;-78
2023/01/17 03:52:31;;;;;;;1.65;1.17;;;;;;;8.66;100.00;100487.84;4999249;28;20443;-77
2023/01/17 03:55:01;;;;;;;2.17;0.90;;;;;;;8.63;100.00;100498.06;5009796;28;20124;-75
2023/01/17 03:57:30;;;;;;;1.60;1.00;;;;;;;8.60;100.00;100494.56;5001756;28;20042;-75
2023/01/17 03:59:58;;;;;;;1.80;0.57;;;;;;;8.62;100.00;100502.34;5003282;28;20054;-77
2023/01/17 04:02:27;;;;;;;1.55;0.68;;;;;;;8.59;100.00;100505.72;5004781;28;20061;-79
2023/01/17 04:04:55;;;;;;;1.42;0.75;;;;;;;8.60;100.00;100504.88;5007404;28;20041;-78
2023/01/17 04:07:24;;;;;;;2.00;0.80;;;;;;;8.60;99.81;100504.88;5006528;28;20079;-79
2023/01/17 04:09:54;;;;;;;3.60;0.80;;;;;;;8.59;100.00;100515.16;5006332;28;20072;-78
2023/01/17 04:12:23;;;;;;;1.30;0.77;;;;;;;8.55;100.00;100510.72;5006307;28;20049;-78
2023/01/17 04:14:51;;;;;;;5.53;0.98;;;;;;;8.53;100.00;100518.41;5008300;28;20046;-79
2023/01/17 04:17:21;;;;;;;1.88;0.52;;;;;;;8.55;100.00;100516.75;5008332;28;20606;-78
2023/01/17 04:19:49;;;;;;;2.30;0.73;;;;;;;8.54;100.00;100502.13;5008955;28;20602;-75
2023/01/17 04:22:18;;;;;;;1.95;0.80;;;;;;;8.58;100.00;100511.69;5003273;28;20503;-77
2023/01/17 04:24:47;;;;;;;1.95;0.50;;;;;;;8.59;100.00;100516.03;5001816;28;20590;-77
2023/01/17 04:27:17;;;;;;;1.48;0.55;;;;;;;8.53;100.00;100512.38;5007929;28;20483;-76
2023/01/17 04:29:47;;;;;;;0.70;0.40;;;;;;;8.44;100.00;100515.50;4986387;28;20501;-76
2023/01/17 04:32:16;;;;;;;2.80;0.70;;;;;;;8.42;100.00;100524.00;5005841;28;21142;-82
2023/01/17 04:34:44;;;;;;;1.85;0.50;;;;;;;8.38;100.00;100520.41;5005550;28;20132;-75
2023/01/17 04:37:13;;;;;;;2.88;0.45;;;;;;;8.44;100.00;100530.97;5003034;28;20512;-75
2023/01/17 04:39:42;;;;;;;2.00;1.08;;;;;;;8.46;100.00;100531.03;5006678;28;20050;-76
2023/01/17 04:42:12;;;;;;;1.65;0.47;;;;;;;8.47;100.00;100538.81;5002301;28;20687;-84
2023/01/17 04:44:42;;;;;;;0.70;0.50;;;;;;;8.47;100.00;100532.78;5009814;28;20041;-78
2023/01/17 04:47:11;;;;;;;0.93;0.32;;;;;;;8.44;100.00;100543.88;5005250;28;20054;-79
2023/01/17 04:49:40;;;;;;;1.60;0.73;;;;;;;8.40;100.00;100547.16;5002719;28;20041;-78
2023/01/17 04:52:10;;;;;;;1.00;0.50;;;;;;;8.36;99.51;100552.97;5003146;28;20500;-80
2023/01/17 04:54:39;;;;;;;0.82;0.50;;;;;;;8.35;99.59;100556.41;4996868;28;20050;-78
2023/01/17 04:57:07;;;;;;;4.45;0.63;;;;;;;8.31;99.42;100551.97;4998819;28;20053;-81
2023/01/17 04:59:36;;;;;;;0.82;0.43;;;;;;;8.29;100.00;100563.91;5001379;28;20049;-79
2023/01/17 05:02:06;;;;;;;1.15;0.47;;;;;;;8.32;100.00;100561.47;4998456;28;20112;-78
2023/01/17 05:04:35;;;;;;;1.05;0.43;;;;;;;8.37;100.00;100567.66;4999271;28;20536;-77
2023/01/17 05:07:03;;;;;;;1.55;0.63;;;;;;;8.41;100.00;100574.72;5000312;28;20046;-78
2023/01/17 05:09:32;;;;;;;3.97;0.40;;;;;;;8.47;100.00;100574.91;5007359;28;20585;-78
2023/01/17 05:12:00;;;;;;;1.55;0.47;;;;;;;8.48;100.00;100571.53;5001132;28;20058;-78
2023/01/17 05:14:29;;;;;;;2.20;0.50;;;;;;;8.48;100.00;100576.69;5003617;28;20057;-79
2023/01/17 05:16:58;;;;;;;0.82;0.47;;;;;;;8.45;100.00;100579.13;5005670;28;20115;-77
2023/01/17 05:19:29;;;;;;;3.55;0.60;;;;;;;8.41;100.00;100577.28;5005780;28;20053;-77
2023/01/17 05:22:02;;;;;;;0.75;0.40;;;;;;;8.42;100.00;100576.44;5002463;28;20049;-79
2023/01/17 05:24:31;;;;;;;1.33;0.45;;;;;;;8.38;100.00;100571.97;5003042;28;20065;-79
2023/01/17 05:27:01;;;;;;;1.27;0.73;;;;;;;8.31;100.00;100562.25;5003781;28;20113;-78
2023/01/17 05:29:30;;;;;;;3.38;1.10;;;;;;;8.36;100.00;100571.03;5004084;28;20058;-79
2023/01/17 05:31:59;;;;;;;2.10;0.73;;;;;;;8.32;100.00;100576.94;5011161;28;20385;-81
2023/01/17 05:34:29;;;;;;;2.83;0.75;;;;;;;8.25;100.00;100574.97;5010213;28;20057;-80
2023/01/17 05:36:58;;;;;;;4.90;0.90;;;;;;;8.22;100.00;100577.41;5005626;28;20046;-80
2023/01/17 05:39:27;;;;;;;1.52;1.13;;;;;;;8.23;100.00;100576.59;4992682;28;20509;-80
2023/01/17 05:41:55;;;;;;;3.78;1.10;;;;;;;8.22;100.00;100582.56;5005047;28;20419;-81
2023/01/17 05:44:24;;;;;;;3.85;1.13;;;;;;;8.22;100.00;100578.28;5010585;28;20053;-81
2023/01/17 05:46:52;;;;;;;4.28;1.50;;;;;;;8.19;100.00;100589.34;5005029;28;20050;-80
2023/01/17 05:49:21;;;;;;;2.70;1.00;;;;;;;8.16;100.00;100583.22;5009683;28;20076;-80
2023/01/17 05:51:51;;;;;;;2.40;1.38;;;;;;;8.11;100.00;100580.50;5004066;28;20136;-82
2023/01/17 05:54:20;;;;;;;2.45;1.60;;;;;;;8.06;100.00;100582.00;5008509;28;20358;-80
2023/01/17 05:56:48;;;;;;;1.45;0.98;;;;;;;8.00;100.00;100579.22;5008393;28;20454;-82
2023/01/17 05:59:17;;;;;;;2.17;1.40;;;;;;;7.96;100.00;100582.50;5009004;28;20052;-83
2023/01/17 06:01:45;;;;;;;1.85;1.05;;;;;;;7.94;100.00;100585.00;5005101;28;20492;-82
2023/01/17 06:04:14;;;;;;;1.95;1.08;;;;;;;7.89;100.00;100593.38;5010116;28;20665;-82
2023/01/17 06:06:43;;;;;;;5.45;1.13;;;;;;;7.85;100.00;100594.09;5003151;28;20086;-81
2023/01/17 06:09:13;;;;;;;2.72;1.38;;;;;;;7.83;100.00;100606.03;5008599;28;20363;-82
2023/01/17 06:11:41;;;;;;;4.05;1.67;;;;;;;7.79;100.00;100602.47;5011626;28;20053;-81
2023/01/17 06:14:10;;;;;;;2.92;1.55;;;;;;;7.79;100.00;100606.72;5009723;28;20449;-83
2023/01/17 06:16:38;;;;;;;3.75;1.30;;;;;;;7.76;100.00;100607.50;5005182;28;20062;-83
2023/01/17 06:19:08;;;;;;;2.35;1.52;;;;;;;7.74;100.00;100598.81;5006938;28;20049;-81
2023/01/17 06:21:36;;;;;;;2.63;1.70;;;;;;;7.73;100.00;100607.38;5010225;28;20661;-80
2023/01/17 06:24:05;;;;;;;2.45;1.83;;;;;;;7.68;100.00;100602.06;5009727;28;20057;-82
2023/01/17 06:26:36;;;;;;;3.53;1.92;;;;;;;7.66;100.00;100606.25;5009295;28;20046;-81
2023/01/17 06:29:04;;;;;;;6.15;2.17;;;;;;;7.64;100.00;100607.91;5006934;28;20508;-84
2023/01/17 06:31:33;;;;;;;4.88;1.88;;;;;;;7.61;100.00;100617.22;5007146;28;20057;-83
2023/01/17 06:34:03;;;;;;;4.40;2.00;;;;;;;7.61;100.00;100617.22;4998407;28;20513;-81
2023/01/17 06:36:33;;;;;;;2.13;1.70;;;;;;;7.59;100.00;100614.56;5008773;28;20053;-82
2023/01/17 06:39:02;;;;;;;6.57;2.40;;;;;;;7.59;100.00;100619.72;5009035;28;20539;-82
2023/01/17 06:41:30;;;;;;;6.70;2.25;;;;;;;7.61;100.00;100615.50;5007111;28;20050;-82
2023/01/17 06:44:00;;;;;;;3.15;1.65;;;;;;;7.60;100.00;100624.03;5009000;28;20142;-81
2023/01/17 06:46:29;;;;;;;4.45;1.73;;;;;;;7.56;100.00;100627.34;5011113;28;20064;-82
2023/01/17 06:48:58;;;;;;;5.85;2.05;;;;;;;7.53;100.00;100628.06;5005578;28;20038;-80
2023/01/17 06:51:26;;;;;;;6.80;2.17;;;;;;;7.49;100.00;100628.78;5006866;28;20042;-81
2023/01/17 06:53:55;;;;;;;5.13;2.20;;;;;;;7.49;100.00;100626.22;5004033;28;20061;-82
2023/01/17 06:56:23;;;;;;;5.57;2.10;;;;;;;7.47;100.00;100632.13;5008502;28;20053;-81
2023/01/17 06:58:53;;;;;;;3.75;1.95;;;;;;;7.48;100.00;100636.44;5008478;28;20046;-83
2023/01/17 07:01:23;;;;;;;4.72;1.50;;;;;;;7.45;100.00;100637.19;5006546;28;20060;-82
2023/01/17 07:03:52;;;;;;;3.67;1.52;;;;;;;7.43;100.00;100638.81;5010445;28;20061;-83
2023/01/17 07:06:22;;;;;;;6.93;1.73;;;;;;;7.42;100.00;100641.34;5010864;28;20081;-85
2023/01/17 07:08:51;;;;;;;5.80;1.80;;;;;;;7.42;100.00;100643.91;5008513;28;20057;-81
2023/01/17 07:11:19;;;;;;;3.03;1.88;;;;;;;7.39;100.00;100643.78;5012400;28;20050;-83
2023/01/17 07:13:48;;;;;;;1.60;1.05;;;;;;;7.41;100.00;100639.59;5009751;28;20057;-81
2023/01/17 07:16:17;;;;;;;5.53;1.45;;;;;;;7.41;100.00;100649.88;5008866;28;20050;-81
2023/01/17 07:18:47;;;;;;;2.22;1.08;;;;;;;7.40;100.00;100649.00;5007286;28;20594;-81
2023/01/17 07:21:16;;;;;;;4.88;1.35;;;;;;;7.40;100.00;100653.25;5005616;28;20057;-81
2023/01/17 07:23:45;;;;;;;1.55;0.90;;;;;;;7.40;100.00;100651.59;5008565;28;20050;-81
2023/01/17 07:26:13;;;;;;;3.63;1.20;;;;;;;7.42;100.00;100661.94;5005277;28;20042;-80
2023/01/17 07:28:42;;;;;;;4.28;1.33;;;;;;;7.39;100.00;100654.09;5005430;28;20104;-82
2023/01/17 07:31:10;;;;;;;2.13;1.40;;;;;;;7.42;100.00;100662.81;5007620;28;20049;-81
2023/01/17 07:33:39;;;;;;;8.70;1.38;;;;;;;7.42;100.00;100662.81;5006960;28;20054;-80
2023/01/17 07:36:10;;;;;;;3.05;1.23;;;;;;;7.42;100.00;100660.25;5008252;28;20569;-82
2023/01/17 07:38:39;;;;;;;1.63;0.98;;;;;;;7.45;100.00;100672.38;5007739;28;20535;-82
2023/01/17 07:41:07;;;;;;;1.52;0.90;;;;;;;7.48;100.00;100673.34;5007753;28;20050;-82
2023/01/17 07:43:36;;;;;;;3.25;1.05;;;;;;;7.48;100.00;100672.47;5008375;28;20054;-83
2023/01/17 07:46:07;;;;;;;2.50;1.05;;;;;;;7.44;100.00;100665.44;5006415;28;20066;-83
2023/01/17 07:48:36;;;;;;;2.05;1.20;;;;;;;7.37;100.00;100656.59;5008869;28;20056;-82
2023/01/17 07:51:04;;;;;;;4.90;1.30;;;;;;;7.46;100.00;100684.41;5011136;28;20049;-82
2023/01/17 07:53:35;;;;;;;3.08;0.85;;;;;;;7.46;100.00;100676.69;5006234;28;20727;-82
2023/01/17 07:56:05;;;;;;;1.85;0.60;;;;;;;7.46;100.00;100674.13;5006059;28;20406;-82
2023/01/17 07:58:33;;;;;;;2.25;0.73;;;;;;;7.44;100.00;100671.47;5007379;28;20071;-83
2023/01/17 08:01:03;;;;;;;2.85;0.70;;;;;;;7.43;100.00;100679.16;5006966;28;20050;-82
2023/01/17 08:03:35;;;;;;;3.38;0.80;;;;;;;7.44;100.00;100680.88;5009135;28;20054;-80
2023/01/17 08:06:04;;;;;;;4.50;0.83;;;;;;;7.44;100.00;100678.31;5010044;28;20050;-81
2023/01/17 08:08:34;;;;;;;1.85;0.70;;;;;;;7.45;100.00;100682.66;5004418;28;20047;-79
2023/01/17 08:11:03;;;;;;;3.05;0.80;;;;;;;7.44;100.00;100673.16;5011674;28;20166;-82
2023/01/17 08:13:31;;;;;;;3.20;1.00;;;;;;;7.45;100.00;100677.50;5007139;28;20042;-81
2023/01/17 08:16:01;;;;;;;1.45;0.70;;;;;;;7.44;100.00;100680.88;5007936;28;20061;-81
2023/01/17 08:18:29;;;;;;;3.50;1.30;;;;;;;7.44;100.00;100680.88;5003647;28;20088;-80
2023/01/17 08:21:00;;;;;;;0.93;0.82;;;;;;;7.42;100.00;100682.53;5005705;28;20060;-83
2023/01/17 08:23:30;;;;;;;2.70;1.02;;;;;;;7.41;100.00;100691.94;5005160;28;20057;-81
2023/01/17 08:26:02;;;;;;;3.38;1.45;;;;;;;7.41;100.00;100688.50;5007708;28;20069;-81
2023/01/17 08:28:31;;;;;;;1.50;0.95;;;;;;;7.44;100.00;100686.03;5002512;28;20050;-80
2023/01/17 08:31:06;;;;;;;3.95;0.93;;;;;;;7.44;100.00;100676.63;5004071;28;20056;-80
2023/01/17 08:33:35;;;;;;;1.23;0.60;;;;;;;7.44;100.00;100679.19;5005681;28;20052;-80
2023/01/17 08:36:03;;;;;;;2.85;0.93;;;;;;;7.44;100.00;100681.75;5005632;28;20065;-80
2023/01/17 08:38:32;;;;;;;4.07;1.05;;;;;;;7.46;100.00;100684.41;5007219;28;20050;-81
2023/01/17 08:41:03;;;;;;;1.75;0.80;;;;;;;7.49;100.00;100684.53;5005681;28;20053;-80
2023/01/17 08:43:32;;;;;;;2.15;0.88;;;;;;;7.51;100.00;100688.03;5006523;28;20045;-79
2023/01/17 08:46:01;;;;;;;2.10;0.90;;;;;;;7.52;100.00;100682.97;4992259;28;20062;-79
2023/01/17 08:48:30;;;;;;;2.03;0.98;;;;;;;7.53;100.00;100689.84;4983580;28;20050;-79
2023/01/17 08:51:01;;;;;;;3.05;1.30;;;;;;;7.56;100.00;100691.72;4981451;28;20054;-79
2023/01/17 08:53:30;;;;;;;2.33;0.97;;;;;;;7.58;100.00;100690.03;4986162;28;20058;-80
2023/01/17 08:55:59;;;;;;;5.35;1.17;;;;;;;7.62;100.00;100689.34;4984941;28;20061;-81
2023/01/17 08:58:31;;;;;;;1.92;1.25;;;;;;;7.65;100.00;100693.75;4983250;28;20085;-80
2023/01/17 09:01:02;;;;;;;2.63;1.15;;;;;;;7.68;100.00;100697.34;4985087;28;20055;-79
2023/01/17 09:03:31;;;;;;;4.00;1.13;;;;;;;7.68;100.00;100697.34;4985247;28;20613;-79
2023/01/17 09:06:04;;;;;;;4.97;1.17;;;;;;;7.69;100.00;100699.09;4989637;28;20081;-80
2023/01/17 09:08:33;;;;;;;1.65;0.95;;;;;;;7.68;100.00;100696.47;4992275;28;20128;-80
2023/01/17 09:11:05;;;;;;;2.50;1.38;;;;;;;7.65;100.00;100686.94;4988055;28;20540;-79
2023/01/17 09:13:35;;;;;;;3.30;1.40;;;;;;;7.65;100.00;100691.19;4985558;28;20110;-79
2023/01/17 09:16:03;;;;;;;3.53;1.20;;;;;;;7.62;100.00;100694.50;4990523;28;20050;-79
2023/01/17 09:18:33;;;;;;;2.10;1.45;;;;;;;7.63;100.00;100697.97;4986172;28;20046;-79
2023/01/17 09:21:11;;;;;;;2.33;1.55;;;;;;;7.62;100.00;100702.22;4990584;28;20073;-79
2023/01/17 09:23:40;;;;;;;3.75;1.38;;;;;;;7.64;100.00;100697.16;4989965;28;20051;-79
2023/01/17 09:26:15;;;;;;;3.25;1.30;;;;;;;7.63;100.00;100698.84;4986465;28;20074;-79
2023/01/17 09:28:45;;;;;;;1.95;1.23;;;;;;;7.63;100.00;100704.00;4989171;28;20789;-80
2023/01/17 09:31:13;;;;;;;4.18;1.40;;;;;;;7.62;100.00;100707.38;4987012;28;20038;-80
2023/01/17 09:33:42;;;;;;;2.85;1.20;;;;;;;7.62;100.00;100707.38;4990999;28;20058;-80
2023/01/17 09:36:11;;;;;;;4.78;1.48;;;;;;;7.61;100.00;100710.78;4990899;28;20088;-79
2023/01/17 09:38:47;;;;;;;2.05;1.10;;;;;;;7.62;100.00;100711.66;4990199;28;20421;-80
2023/01/17 09:41:26;;;;;;;3.47;1.23;;;;;;;7.61;100.00;100710.78;4988580;28;20058;-80
2023/01/17 09:44:02;;;;;;;3.45;1.40;;;;;;;7.60;100.00;100714.16;4990112;28;20045;-79
2023/01/17 09:46:32;;;;;;;2.72;1.55;;;;;;;7.61;100.00;100720.22;5004953;28;20056;-79
2023/01/17 09:49:07;;;;;;;2.65;1.73;;;;;;;7.61;100.00;100722.78;5007675;28;20038;-79
2023/01/17 09:51:37;;;;;;;1.67;1.00;;;;;;;7.61;100.00;100720.22;5006423;28;20061;-81
2023/01/17 09:54:06;;;;;;;1.90;1.10;;;;;;;7.59;100.00;100727.88;5012267;28;20062;-80
2023/01/17 09:56:41;;;;;;;3.25;1.35;;;;;;;7.55;100.00;100725.97;5009767;28;20049;-80
2023/01/17 09:59:29;;;;;;;1.98;1.17;;;;;;;7.51;100.00;100724.09;5009752;28;20056;-81
2023/01/17 10:02:10;;;;;;;1.90;1.20;;;;;;;7.49;100.00;100733.44;5008542;28;20941;-81
2023/01/17 10:04:54;;;;;;;1.50;0.80;;;;;;;7.42;100.00;100734.00;5001003;28;20538;-80
2023/01/17 10:07:37;;;;;;;1.83;1.10;;;;;;;7.32;100.00;100727.59;5014917;28;20144;-81
2023/01/17 10:10:19;;;;;;;4.40;0.98;;;;;;;7.38;100.00;100738.16;5008517;28;20621;-81
2023/01/17 10:12:57;;;;;;;1.58;0.68;;;;;;;7.39;100.00;100742.47;5008756;28;20050;-81
2023/01/17 10:16:01;;;;;;;4.22;0.95;;;;;;;7.37;100.00;100754.41;5009053;28;20061;-81
2023/01/17 10:19:02;;;;;;;2.25;1.10;;;;;;;7.36;100.00;100749.22;5008119;28;20393;-79
2023/01/17 10:21:44;;;;;;;2.35;0.77;;;;;;;7.36;100.00;100751.78;5001996;28;20173;-80
2023/01/17 10:24:45;;;;;;;3.08;0.80;;;;;;;7.34;100.00;100747.44;5007589;28;20100;-81
2023/01/17 10:27:20;;;;;;;1.45;0.73;;;;;;;7.36;100.00;100754.34;5005066;28;20531;-80
2023/01/17 10:29:51;;;;;;;2.35;0.95;;;;;;;7.33;100.00;100757.69;5008054;28;20152;-80
2023/01/17 10:32:25;;;;;;;4.30;1.00;;;;;;;7.33;100.00;100749.97;5013068;28;20042;-80
2023/01/17 10:34:54;;;;;;;1.65;0.60;;;;;;;7.34;100.00;100760.31;5007766;28;20539;-80
2023/01/17 10:37:28;;;;;;;3.13;1.02;;;;;;;7.36;100.00;100754.34;5009878;28;20046;-80
2023/01/17 10:40:03;;;;;;;3.88;0.90;;;;;;;7.38;100.00;100757.88;5010840;28;20415;-80
2023/01/17 10:42:42;;;;;;;1.20;0.55;;;;;;;7.38;100.00;100758.75;5012655;28;20058;-80
2023/01/17 10:45:19;;;;;;;2.25;0.70;;;;;;;7.39;100.00;100765.66;5010624;28;20115;-81
2023/01/17 10:48:03;;;;;;;2.63;0.68;;;;;;;7.40;100.00;100761.38;5011738;28;20114;-82
2023/01/17 10:50:41;;;;;;;2.13;0.60;;;;;;;7.40;100.00;100766.53;5009493;28;20100;-81
2023/01/17 10:53:21;;;;;;;1.20;0.60;;;;;;;7.42;100.00;100770.03;5013787;28;20108;-81
2023/01/17 10:55:53;;;;;;;2.15;0.73;;;;;;;7.43;100.00;100766.66;5011653;28;20107;-81
2023/01/17 10:58:22;;;;;;;3.63;0.90;;;;;;;7.44;100.00;100768.41;5010684;28;20077;-80
2023/01/17 11:00:55;;;;;;;1.30;0.73;;;;;;;7.44;100.00;100768.41;5011226;28;20072;-80
2023/01/17 11:03:27;;;;;;;2.42;0.88;;;;;;;7.46;100.00;100779.66;5009187;28;20542;-80
2023/01/17 11:06:19;;;;;;;2.72;0.70;;;;;;;7.46;100.00;100777.97;5010824;28;20331;-81
2023/01/17 11:08:52;;;;;;;3.00;0.80;;;;;;;7.49;100.00;100782.34;5011391;28;20526;-81
2023/01/17 11:11:24;;;;;;;1.48;1.13;;;;;;;7.48;100.00;100773.75;5008158;28;20050;-81
2023/01/17 11:13:55;;;;;;;1.60;0.95;;;;;;;7.50;100.00;100786.72;5011384;28;20506;-81
2023/01/17 11:16:27;;;;;;;2.33;0.90;;;;;;;7.50;100.00;100789.28;5009060;28;20053;-81
2023/01/17 11:19:16;;;;;;;1.92;0.75;;;;;;;7.50;100.00;100794.44;5011834;28;20041;-81
2023/01/17 11:21:53;;;;;;;1.77;1.13;;;;;;;7.50;100.00;100789.28;5008186;28;20077;-81
2023/01/17 11:24:32;;;;;;;2.33;1.38;;;;;;;7.46;100.00;100793.41;5004549;28;20050;-81
2023/01/17 11:27:01;;;;;;;3.25;0.80;;;;;;;7.46;100.00;100795.13;5006266;28;20065;-81
2023/01/17 11:29:35;;;;;;;3.15;0.85;;;;;;;7.47;100.00;100802.03;5006414;28;20050;-81
2023/01/17 11:32:32;;;;;;;3.85;1.17;;;;;;;7.46;100.00;100797.69;5005340;28;20136;-82
2023/01/17 11:35:16;;;;;;;4.78;0.90;;;;;;;7.46;100.00;100807.97;5006631;28;20074;-80
2023/01/17 11:37:57;;;;;;;2.10;0.70;;;;;;;7.45;100.00;100801.97;5006025;28;20049;-79
2023/01/17 11:40:29;;;;;;;1.10;0.90;;;;;;;7.37;100.00;100803.31;5007477;28;20054;-80
2023/01/17 11:43:04;;;;;;;1.45;0.77;;;;;;;7.37;100.00;100802.44;5008923;28;20660;-82
2023/01/17 11:45:34;;;;;;;1.33;0.70;;;;;;;7.33;100.00;100797.16;5010461;28;20053;-81
2023/01/17 11:48:16;;;;;;;1.05;0.57;;;;;;;7.28;100.00;100811.53;5006326;28;20117;-83
2023/01/17 11:50:55;;;;;;;3.25;1.05;;;;;;;7.28;100.00;100811.53;5006446;28;20531;-79
2023/01/17 11:53:27;;;;;;;2.63;0.75;;;;;;;7.25;100.00;100815.66;5005638;28;20054;-80
2023/01/17 11:56:04;;;;;;;5.22;1.08;;;;;;;7.16;100.00;100804.97;5007847;28;20050;-81
2023/01/17 11:58:35;;;;;;;1.38;0.70;;;;;;;7.22;100.00;100819.00;5005877;28;20081;-80
2023/01/17 12:01:21;;;;;;;1.27;0.70;;;;;;;7.21;100.00;100821.47;5007221;28;20049;-79
2023/01/17 12:04:18;;;;;;;1.13;0.75;;;;;;;7.17;100.00;100823.06;5007649;28;20050;-81
2023/01/17 12:06:57;;;;;;;3.35;1.05;;;;;;;7.12;100.00;100816.81;5007881;28;20061;-79
2023/01/17 12:09:33;;;;;;;3.88;0.73;;;;;;;7.10;100.00;100824.47;5005533;28;20046;-79
2023/01/17 12:15:11;;;;;;;1.88;0.90;;;;;;;7.08;100.00;100825.22;5008655;28;20064;-78
2023/01/17 12:17:57;;;;;;;2.00;0.80;;;;;;;7.04;100.00;100819.03;5005585;28;20053;-79
2023/01/17 12:20:33;;;;;;;4.18;0.75;;;;;;;7.02;100.00;100820.66;5007297;28;20049;-79
2023/01/17 12:23:48;;;;;;;1.30;0.70;;;;;;;7.02;100.00;100832.66;5002063;28;20096;-80
2023/01/17 12:26:31;;;;;;;1.13;0.63;;;;;;;6.97;100.00;100831.56;4923924;29;20624;-79
2023/01/17 12:29:18;;;;;;;2.35;0.77;;;;;;;6.94;100.00;100829.75;4991653;28;20052;-78
2023/01/17 12:31:59;;;;;;;0.85;0.70;;;;;;;6.93;100.00;100833.13;5006286;28;20615;-78
2023/01/17 12:34:32;;;;;;;1.90;0.70;;;;;;;6.92;100.00;100844.22;4999587;28;20470;-82
2023/01/17 12:37:08;;;;;;;2.15;0.93;;;;;;;6.91;100.00;100833.03;5003843;28;20695;-83
2023/01/17 12:39:44;;;;;;;1.98;1.20;;;;;;;6.89;100.00;100844.06;5001603;28;20054;-80
2023/01/17 12:42:17;;;;;;;1.92;0.90;;;;;;;6.91;100.00;100838.19;5003213;28;20050;-77
2023/01/17 12:44:56;;;;;;;2.65;0.90;;;;;;;6.94;100.00;100842.63;5004037;28;20045;-78
2023/01/17 12:47:25;;;;;;;1.83;0.52;;;;;;;6.93;100.00;100845.97;5008769;28;20054;-79
2023/01/17 12:50:05;;;;;;;1.98;0.98;;;;;;;6.94;100.00;100842.63;5004357;28;20104;-79
2023/01/17 12:52:50;;;;;;;1.10;0.60;;;;;;;6.95;100.00;100846.06;5004997;28;20057;-79
2023/01/17 12:55:28;;;;;;;6.25;0.80;;;;;;;6.89;100.00;100844.06;5006611;28;20516;-80
2023/01/17 12:58:01;;;;;;;4.93;0.70;;;;;;;6.89;100.00;100850.13;5005143;28;20054;-79
2023/01/17 13:00:33;;;;;;;1.67;0.60;;;;;;;6.91;100.00;100856.19;5009082;28;20056;-78
2023/01/17 13:03:13;;;;;;;3.10;1.00;;;;;;;6.89;100.00;100854.34;5004154;28;20562;-79
2023/01/17 13:05:45;;;;;;;2.33;0.90;;;;;;;6.90;100.00;100856.13;5006066;28;20045;-79
2023/01/17 13:08:18;;;;;;;;;;;;;;;6.92;100.00;100857.97;5007778;28;20499;-78
2023/01/17 13:10:53;;;;;;;1.48;0.65;;;;;;;6.95;100.00;100864.06;5004586;28;19963;-79
2023/01/17 13:13:24;;;;;;;2.05;0.77;;;;;;;6.95;100.00;100869.22;5002791;28;20056;-78
2023/01/17 13:15:55;;;;;;;3.72;1.35;;;;;;;6.94;100.00;100863.19;5008217;28;20046;-78